createdAt,value
2024-02-19T00:00:37.794Z,7.70
2024-02-19T00:04:20.793Z,7.73
2024-02-19T00:08:05.656Z,7.67
2024-02-19T00:11:48.607Z,7.63
2024-02-19T00:15:32.195Z,7.68
2024-02-19T00:19:15.415Z,7.64
2024-02-19T00:22:58.310Z,7.64
2024-02-19T00:26:42.503Z,7.69
2024-02-19T00:30:25.471Z,7.63
2024-02-19T00:34:08.818Z,7.68
2024-02-19T00:37:52.473Z,7.62
2024-02-19T00:41:35.822Z,7.69
2024-02-19T00:45:20.059Z,7.68
2024-02-19T00:49:03.238Z,7.60
2024-02-19T00:52:46.120Z,7.55
2024-02-19T00:56:29.045Z,7.55
2024-02-19T01:00:12.528Z,7.57
2024-02-19T01:03:56.794Z,7.45
2024-02-19T01:07:39.800Z,7.37
2024-02-19T01:11:22.765Z,7.32
2024-02-19T01:15:06.583Z,7.27
2024-02-19T01:18:49.909Z,7.30
2024-02-19T01:22:34.545Z,7.38
2024-02-19T01:26:20.428Z,7.35
2024-02-19T01:30:03.303Z,7.41
2024-02-19T01:33:46.269Z,7.23
2024-02-19T01:37:29.132Z,7.17
2024-02-19T01:41:13.375Z,7.14
2024-02-19T01:44:56.298Z,7.12
2024-02-19T01:48:39.657Z,7.15
2024-02-19T01:52:22.855Z,7.14
2024-02-19T01:56:06.937Z,7.05
2024-02-19T01:59:51.437Z,7.06
2024-02-19T02:03:36.301Z,7.03
2024-02-19T02:07:19.942Z,7.00
2024-02-19T02:11:02.857Z,7.06
2024-02-19T02:14:45.686Z,7.07
2024-02-19T02:18:31.299Z,7.01
2024-02-19T02:22:14.879Z,7.05
2024-02-19T02:25:58.393Z,7.06
2024-02-19T02:29:42.610Z,7.08
2024-02-19T02:33:25.633Z,7.08
2024-02-19T02:37:08.622Z,6.98
2024-02-19T02:40:51.718Z,6.97
2024-02-19T02:44:34.676Z,6.93
2024-02-19T02:48:19.333Z,6.86
2024-02-19T02:52:02.312Z,6.84
2024-02-19T02:55:45.301Z,6.81
2024-02-19T02:59:28.201Z,6.89
2024-02-19T03:03:11.984Z,6.88
2024-02-19T03:06:56.278Z,6.80
2024-02-19T03:10:39.203Z,6.84
2024-02-19T03:14:22.204Z,6.81
2024-02-19T03:18:05.826Z,6.73
2024-02-19T03:21:48.899Z,6.73
2024-02-19T03:25:33.336Z,6.68
2024-02-19T03:29:16.447Z,6.77
2024-02-19T03:32:59.489Z,6.77
2024-02-19T03:36:46.359Z,6.75
2024-02-19T03:40:29.459Z,6.69
2024-02-19T03:44:13.708Z,6.70
2024-02-19T03:47:56.743Z,6.73
2024-02-19T03:51:39.679Z,6.77
2024-02-19T03:55:22.690Z,6.81
2024-02-19T03:59:06.254Z,6.83
2024-02-19T04:02:50.498Z,6.84
2024-02-19T04:06:33.417Z,6.80
2024-02-19T04:10:16.522Z,6.82
2024-02-19T04:13:59.503Z,6.88
2024-02-19T04:17:42.528Z,6.94
2024-02-19T04:21:26.787Z,6.89
2024-02-19T04:25:10.482Z,6.91
2024-02-19T04:28:54.607Z,6.86
2024-02-19T04:32:38.607Z,6.88
2024-02-19T04:36:21.507Z,6.86
2024-02-19T04:40:08.559Z,6.80
2024-02-19T04:43:51.520Z,6.86
2024-02-19T04:47:34.827Z,6.81
2024-02-19T04:51:17.782Z,6.89
2024-02-19T04:55:00.825Z,6.83
2024-02-19T04:58:45.069Z,6.90
2024-02-19T05:02:27.956Z,6.92
2024-02-19T05:06:10.946Z,6.91
2024-02-19T05:09:53.910Z,6.92
2024-02-19T05:13:37.622Z,6.94
2024-02-19T05:17:22.540Z,6.90
2024-02-19T05:21:07.385Z,6.91
2024-02-19T05:24:50.380Z,6.96
2024-02-19T05:28:33.822Z,6.96
2024-02-19T05:32:20.024Z,6.96
2024-02-19T05:36:04.930Z,7.03
2024-02-19T05:39:47.890Z,7.06
2024-02-19T05:43:30.973Z,7.06
2024-02-19T05:47:13.950Z,7.15
2024-02-19T05:50:57.016Z,7.16
2024-02-19T05:54:41.282Z,7.28
2024-02-19T05:58:24.155Z,7.23
2024-02-19T06:02:07.703Z,7.25
2024-02-19T06:05:50.716Z,7.25
2024-02-19T06:09:33.666Z,7.25
2024-02-19T06:13:17.978Z,7.29
2024-02-19T06:17:01.001Z,7.30
2024-02-19T06:20:43.914Z,7.22
2024-02-19T06:24:26.822Z,7.19
2024-02-19T06:28:09.834Z,7.20
2024-02-19T06:31:55.755Z,7.27
2024-02-19T06:35:38.698Z,7.25
2024-02-19T06:39:22.236Z,7.29
2024-02-19T06:43:05.689Z,7.23
2024-02-19T06:46:50.039Z,7.17
2024-02-19T06:50:34.399Z,7.19
2024-02-19T06:54:17.358Z,7.20
2024-02-19T06:58:00.271Z,7.29
2024-02-19T07:01:43.257Z,7.29
2024-02-19T07:05:26.453Z,7.43
2024-02-19T07:09:10.995Z,7.49
2024-02-19T07:12:54.007Z,7.52
2024-02-19T07:16:36.877Z,7.55
2024-02-19T07:20:20.200Z,7.52
2024-02-19T07:24:03.750Z,7.61
2024-02-19T07:27:50.945Z,7.67
2024-02-19T07:31:33.992Z,7.67
2024-02-19T07:35:17.298Z,7.66
2024-02-19T07:39:00.253Z,7.75
2024-02-19T07:42:43.154Z,7.74
2024-02-19T07:46:27.631Z,7.84
2024-02-19T07:50:11.400Z,7.79
2024-02-19T07:53:54.384Z,7.80
2024-02-19T07:57:37.442Z,7.79
2024-02-19T08:01:20.498Z,7.80
2024-02-19T08:05:05.409Z,7.70
2024-02-19T08:08:48.685Z,7.67
2024-02-19T08:12:36.006Z,7.75
2024-02-19T08:16:20.218Z,7.84
2024-02-19T08:20:05.652Z,7.79
2024-02-19T08:23:48.665Z,7.76
2024-02-19T08:27:31.599Z,7.94
2024-02-19T08:31:14.637Z,7.92
2024-02-19T08:34:57.769Z,8.02
2024-02-19T08:38:42.175Z,8.15
2024-02-19T08:42:25.247Z,8.13
2024-02-19T08:46:08.253Z,8.15
2024-02-19T08:49:51.477Z,8.14
2024-02-19T08:53:34.446Z,8.10
2024-02-19T08:57:18.826Z,8.01
2024-02-19T09:01:02.622Z,7.88
2024-02-19T09:04:46.846Z,7.92
2024-02-19T09:08:29.953Z,7.91
2024-02-19T09:12:13.358Z,7.85
2024-02-19T09:15:57.646Z,7.80
2024-02-19T09:19:40.748Z,7.94
2024-02-19T09:23:23.640Z,8.11
2024-02-19T09:27:06.763Z,7.92
2024-02-19T09:30:49.612Z,7.97
2024-02-19T09:34:35.373Z,7.93
2024-02-19T09:38:18.443Z,7.94
2024-02-19T09:42:01.442Z,8.02
2024-02-19T09:45:44.733Z,8.19
2024-02-19T09:49:29.713Z,8.11
2024-02-19T09:53:19.895Z,8.15
2024-02-19T09:57:03.309Z,8.22
2024-02-19T10:00:46.316Z,8.28
2024-02-19T10:04:29.615Z,8.25
2024-02-19T10:08:15.307Z,8.15
2024-02-19T10:11:58.893Z,8.03
2024-02-19T10:15:41.967Z,8.01
2024-02-19T10:19:26.769Z,7.98
2024-02-19T10:23:09.699Z,7.93
2024-02-19T10:26:54.006Z,8.03
2024-02-19T10:30:37.417Z,8.30
2024-02-19T10:34:20.439Z,8.49
2024-02-19T10:38:03.377Z,8.71
2024-02-19T10:41:46.496Z,8.81
2024-02-19T10:45:32.147Z,8.69
2024-02-19T10:49:20.628Z,8.69
2024-02-19T10:53:06.662Z,8.53
2024-02-19T10:56:49.724Z,8.50
2024-02-19T11:00:35.251Z,8.62
2024-02-19T11:04:24.455Z,8.46
2024-02-19T11:08:19.729Z,8.36
2024-02-19T11:12:03.709Z,8.39
2024-02-19T11:15:48.419Z,8.27
2024-02-19T11:19:37.840Z,8.32
2024-02-19T11:23:21.684Z,8.54
2024-02-19T11:27:05.650Z,8.60
2024-02-19T11:31:02.095Z,8.62
2024-02-19T11:34:45.076Z,8.56
2024-02-19T11:38:30.662Z,8.72
2024-02-19T11:42:16.359Z,8.64
2024-02-19T11:46:01.020Z,8.51
2024-02-19T11:49:44.396Z,8.37
2024-02-19T11:53:27.580Z,8.48
2024-02-19T11:57:11.417Z,8.69
2024-02-19T12:00:54.475Z,8.85
2024-02-19T12:04:40.502Z,8.96
2024-02-19T12:08:23.804Z,8.68
2024-02-19T12:12:07.430Z,8.51
2024-02-19T12:15:51.536Z,8.59
2024-02-19T12:19:35.214Z,8.70
2024-02-19T12:23:19.689Z,8.75
2024-02-19T12:27:02.956Z,8.82
2024-02-19T12:30:45.946Z,8.99
2024-02-19T12:34:29.170Z,9.23
2024-02-19T12:38:12.180Z,9.54
2024-02-19T12:41:56.507Z,9.63
2024-02-19T12:45:39.608Z,9.68
2024-02-19T12:49:23.357Z,9.52
2024-02-19T12:53:06.551Z,9.35
2024-02-19T12:56:50.246Z,9.26
2024-02-19T13:00:35.092Z,9.37
2024-02-19T13:04:18.026Z,9.54
2024-02-19T13:08:01.074Z,9.63
2024-02-19T13:11:45.170Z,9.85
2024-02-19T13:15:28.260Z,9.46
2024-02-19T13:19:13.670Z,9.13
2024-02-19T13:22:56.833Z,9.02
2024-02-19T13:26:40.260Z,8.78
2024-02-19T13:30:24.301Z,8.70
2024-02-19T13:34:07.904Z,8.52
2024-02-19T13:37:52.374Z,8.30
2024-02-19T13:41:35.363Z,8.14
2024-02-19T13:45:24.554Z,8.20
2024-02-19T13:49:08.123Z,8.46
2024-02-19T13:52:52.978Z,8.60
2024-02-19T13:56:36.155Z,8.63
2024-02-19T14:00:19.634Z,8.85
2024-02-19T14:04:02.959Z,9.08
2024-02-19T14:07:48.806Z,9.55
2024-02-19T14:11:34.077Z,9.58
2024-02-19T14:15:17.212Z,9.58
2024-02-19T14:19:01.268Z,9.34
2024-02-19T14:22:44.530Z,9.31
2024-02-19T14:26:29.795Z,9.30
2024-02-19T14:30:15.663Z,9.55
2024-02-19T14:33:58.744Z,9.41
2024-02-19T14:37:42.284Z,9.32
2024-02-19T14:41:25.241Z,9.10
2024-02-19T14:45:09.034Z,8.95
2024-02-19T14:48:53.703Z,8.81
2024-02-19T14:52:37.121Z,8.58
2024-02-19T14:56:20.104Z,8.38
2024-02-19T15:00:08.984Z,8.23
2024-02-19T15:03:53.434Z,8.20
2024-02-19T15:07:37.218Z,8.16
2024-02-19T15:11:20.320Z,8.16
2024-02-19T15:15:03.363Z,8.07
2024-02-19T15:18:46.432Z,8.09
2024-02-19T15:22:30.854Z,8.08
2024-02-19T15:26:18.884Z,8.08
2024-02-19T15:30:01.947Z,8.12
2024-02-19T15:33:45.190Z,7.96
2024-02-19T15:37:28.240Z,8.00
2024-02-19T15:41:15.486Z,7.89
2024-02-19T15:44:58.637Z,7.88
2024-02-19T15:48:41.646Z,7.87
2024-02-19T15:52:24.653Z,7.77
2024-02-19T15:56:08.176Z,7.81
2024-02-19T15:59:52.554Z,7.79
2024-02-19T16:03:37.355Z,7.85
2024-02-19T16:07:23.453Z,7.79
2024-02-19T16:11:09.376Z,7.73
2024-02-19T16:14:53.941Z,7.65
2024-02-19T16:18:37.629Z,7.57
2024-02-19T16:22:21.182Z,7.41
2024-02-19T16:26:07.073Z,7.43
2024-02-19T16:29:50.010Z,7.47
2024-02-19T16:33:35.626Z,7.45
2024-02-19T16:37:18.670Z,7.45
2024-02-19T16:41:01.682Z,7.46
2024-02-19T16:44:45.069Z,7.49
2024-02-19T16:48:28.224Z,7.43
2024-02-19T16:52:13.610Z,7.40
2024-02-19T16:55:56.667Z,7.41
2024-02-19T16:59:40.025Z,7.39
2024-02-19T17:03:22.951Z,7.36
2024-02-19T17:07:07.212Z,7.30
2024-02-19T17:10:53.357Z,7.36
2024-02-19T17:14:36.300Z,7.37
2024-02-19T17:18:19.487Z,7.45
2024-02-19T17:22:02.746Z,7.49
2024-02-19T17:25:45.726Z,7.50
2024-02-19T17:29:30.413Z,7.58
2024-02-19T17:33:13.552Z,7.64
2024-02-19T17:36:57.543Z,7.65
2024-02-19T17:40:40.562Z,7.71
2024-02-19T17:44:24.233Z,7.71
2024-02-19T17:48:12.351Z,7.71
2024-02-19T17:51:57.020Z,7.74
2024-02-19T17:55:41.112Z,7.81
2024-02-19T17:59:24.161Z,7.86
2024-02-19T18:03:08.664Z,7.91
2024-02-19T18:06:52.880Z,7.97
2024-02-19T18:10:35.860Z,7.95
2024-02-19T18:14:18.895Z,7.93
2024-02-19T18:18:04.224Z,7.91
2024-02-19T18:21:48.839Z,7.92
2024-02-19T18:25:31.928Z,7.91
2024-02-19T18:29:18.210Z,7.92
2024-02-19T18:33:02.385Z,7.91
2024-02-19T18:36:45.729Z,7.90
2024-02-19T18:40:30.435Z,7.86
2024-02-19T18:44:14.715Z,7.85
2024-02-19T18:47:57.985Z,7.84
2024-02-19T18:51:42.763Z,7.81
2024-02-19T18:55:25.824Z,7.87
2024-02-19T18:59:10.521Z,7.85
2024-02-19T19:02:58.578Z,7.83
2024-02-19T19:06:41.748Z,7.82
2024-02-19T19:10:25.218Z,7.84
2024-02-19T19:14:10.990Z,7.86
2024-02-19T19:17:55.535Z,7.89
2024-02-19T19:21:38.981Z,7.91
2024-02-19T19:25:22.279Z,7.94
2024-02-19T19:29:05.493Z,7.94
2024-02-19T19:32:48.517Z,7.97
2024-02-19T19:36:32.996Z,7.92
2024-02-19T19:40:17.161Z,7.92
2024-02-19T19:44:02.517Z,7.96
2024-02-19T19:47:45.530Z,7.94
2024-02-19T19:51:28.380Z,7.90
2024-02-19T19:55:12.702Z,7.87
2024-02-19T19:58:58.657Z,7.83
2024-02-19T20:02:44.784Z,7.79
2024-02-19T20:06:28.700Z,7.82
2024-02-19T20:10:15.123Z,7.78
2024-02-19T20:13:58.198Z,7.75
2024-02-19T20:17:41.389Z,7.77
2024-02-19T20:21:25.340Z,7.78
2024-02-19T20:25:09.282Z,7.79
2024-02-19T20:28:53.703Z,7.80
2024-02-19T20:32:36.701Z,7.77
2024-02-19T20:36:21.207Z,7.74
2024-02-19T20:40:05.973Z,7.77
2024-02-19T20:43:48.910Z,7.77
2024-02-19T20:47:33.322Z,7.78
2024-02-19T20:51:16.766Z,7.75
2024-02-19T20:54:59.697Z,7.67
2024-02-19T20:58:42.664Z,7.71
2024-02-19T21:02:25.827Z,7.80
2024-02-19T21:06:11.282Z,7.79
2024-02-19T21:09:58.236Z,7.78
2024-02-19T21:13:41.327Z,7.78
2024-02-19T21:17:29.076Z,7.78
2024-02-19T21:21:18.078Z,7.83
2024-02-19T21:25:11.675Z,7.81
2024-02-19T21:28:54.665Z,7.84
2024-02-19T21:32:37.591Z,7.80
2024-02-19T21:36:21.882Z,7.74
2024-02-19T21:40:05.944Z,7.72
2024-02-19T21:43:48.854Z,7.72
2024-02-19T21:47:38.065Z,7.68
2024-02-19T21:51:24.296Z,7.66
2024-02-19T21:55:08.037Z,7.53
2024-02-19T21:58:51.402Z,7.58
2024-02-19T22:02:34.567Z,7.59
2024-02-19T22:06:17.638Z,7.50
2024-02-19T22:10:03.508Z,7.54
2024-02-19T22:13:46.718Z,7.59
2024-02-19T22:17:30.224Z,7.63
2024-02-19T22:21:13.199Z,7.66
2024-02-19T22:24:56.594Z,7.70
2024-02-19T22:28:41.211Z,7.70
2024-02-19T22:32:26.072Z,7.70
2024-02-19T22:36:09.293Z,7.77
2024-02-19T22:39:53.489Z,7.76
2024-02-19T22:43:36.818Z,7.78
2024-02-19T22:47:21.133Z,7.78
2024-02-19T22:51:04.142Z,7.78
2024-02-19T22:54:49.085Z,7.75
2024-02-19T22:58:34.878Z,7.78
2024-02-19T23:02:18.543Z,7.79
2024-02-19T23:06:03.068Z,7.79
2024-02-19T23:09:46.170Z,7.80
2024-02-19T23:13:33.300Z,7.80
2024-02-19T23:17:16.887Z,7.84
2024-02-19T23:21:00.246Z,7.81
2024-02-19T23:24:44.969Z,7.77
2024-02-19T23:28:27.887Z,7.77
2024-02-19T23:32:10.937Z,7.77
2024-02-19T23:35:53.880Z,7.73
2024-02-19T23:39:39.150Z,7.68
2024-02-19T23:43:24.217Z,7.64
2024-02-19T23:47:09.008Z,7.47
2024-02-19T23:50:52.420Z,7.36
2024-02-19T23:54:40.690Z,7.40
2024-02-19T23:58:26.560Z,7.43
